FRS174N EDEL-EDDE
Flight info
| Callsign | FRS174N |
|---|---|
| Flight time | 1h 25m |
| Altitude | 3500 |
| Route | DCT TAU FUL |
| Aircraft | C172/L-DFGLOY/LB2 |
Departure
| Time | 2026-05-04 18:19 |
|---|---|
| Airport | Langenlonsheim Airfield (EDEL) |
Arrival
| Time | 2026-05-04 19:44 |
|---|---|
| Airport | Erfurt-Weimar Airport (EDDE) |
| Time | Latitude | Longitude | Altitude | Speed | Heading |
|---|---|---|---|---|---|
| 2026-05-04 17:58 | 49.90967 | 7.90885 | 309 ft | 0 kts | 292° |
| 2026-05-04 18:16 | 49.90969 | 7.90879 | 309 ft | 4 kts | 315° |
| 2026-05-04 18:16 | 49.90995 | 7.90878 | 305 ft | 4 kts | 7° |
| 2026-05-04 18:16 | 49.91027 | 7.90858 | 304 ft | 4 kts | 282° |
| 2026-05-04 18:17 | 49.91029 | 7.90847 | 304 ft | 0 kts | 265° |
| 2026-05-04 18:17 | 49.90997 | 7.90843 | 306 ft | 7 kts | 174° |
| 2026-05-04 18:18 | 49.90949 | 7.90835 | 308 ft | 0 kts | 192° |
| 2026-05-04 18:18 | 49.90878 | 7.90806 | 312 ft | 33 kts | 196° |
| 2026-05-04 18:18 | 49.90522 | 7.90618 | 338 ft | 71 kts | 198° |
| 2026-05-04 18:18 | 49.89964 | 7.90515 | 482 ft | 90 kts | 167° |
| 2026-05-04 18:19 | 49.90009 | 7.92317 | 916 ft | 96 kts | 107° |
| 2026-05-04 18:19 | 49.89564 | 7.93037 | 1137 ft | 96 kts | 145° |
| 2026-05-04 18:19 | 49.89465 | 7.94053 | 1162 ft | 116 kts | 54° |
| 2026-05-04 18:20 | 49.90164 | 7.94441 | 1384 ft | 108 kts | 359° |
| 2026-05-04 18:20 | 49.90858 | 7.94323 | 1594 ft | 104 kts | 346° |
| 2026-05-04 18:20 | 49.91480 | 7.94008 | 1895 ft | 93 kts | 337° |
| 2026-05-04 18:20 | 49.92136 | 7.93848 | 2033 ft | 99 kts | 5° |
| 2026-05-04 18:21 | 49.92818 | 7.94055 | 2219 ft | 100 kts | 22° |
| 2026-05-04 18:21 | 49.93458 | 7.94466 | 2436 ft | 100 kts | 20° |
| 2026-05-04 18:21 | 49.94104 | 7.94868 | 2649 ft | 101 kts | 20° |
| 2026-05-04 18:21 | 49.94758 | 7.95277 | 2866 ft | 101 kts | 20° |
| 2026-05-04 18:22 | 49.95410 | 7.95686 | 3079 ft | 102 kts | 21° |
| 2026-05-04 18:22 | 49.96071 | 7.96102 | 3285 ft | 104 kts | 21° |
| 2026-05-04 18:22 | 49.96798 | 7.96554 | 3304 ft | 119 kts | 21° |
| 2026-05-04 18:22 | 49.97596 | 7.97048 | 3301 ft | 127 kts | 21° |
| 2026-05-04 18:23 | 49.98430 | 7.97565 | 3302 ft | 130 kts | 21° |
| 2026-05-04 18:23 | 49.99275 | 7.98091 | 3302 ft | 131 kts | 21° |
| 2026-05-04 18:23 | 50.00127 | 7.98620 | 3297 ft | 132 kts | 21° |
| 2026-05-04 18:23 | 50.00974 | 7.99146 | 3294 ft | 132 kts | 21° |
| 2026-05-04 18:24 | 50.01825 | 7.99677 | 3294 ft | 131 kts | 21° |
| 2026-05-04 18:24 | 50.02667 | 8.00204 | 3297 ft | 130 kts | 21° |
| 2026-05-04 18:24 | 50.03506 | 8.00730 | 3295 ft | 130 kts | 21° |
| 2026-05-04 18:24 | 50.04346 | 8.01271 | 3288 ft | 130 kts | 24° |
| 2026-05-04 18:25 | 50.05156 | 8.01905 | 3296 ft | 130 kts | 26° |
| 2026-05-04 18:25 | 50.05966 | 8.02542 | 3292 ft | 130 kts | 26° |
| 2026-05-04 18:25 | 50.06776 | 8.03175 | 3294 ft | 131 kts | 26° |
| 2026-05-04 18:25 | 50.07590 | 8.03815 | 3290 ft | 132 kts | 26° |
| 2026-05-04 18:26 | 50.08409 | 8.04459 | 3296 ft | 132 kts | 26° |
| 2026-05-04 18:26 | 50.09242 | 8.05077 | 3289 ft | 132 kts | 21° |
| 2026-05-04 18:26 | 50.10103 | 8.05568 | 3288 ft | 131 kts | 19° |
| 2026-05-04 18:26 | 50.10937 | 8.06082 | 3287 ft | 124 kts | 22° |
| 2026-05-04 18:27 | 50.11680 | 8.06589 | 3271 ft | 112 kts | 23° |
| 2026-05-04 18:27 | 50.12386 | 8.07079 | 3276 ft | 109 kts | 23° |
| 2026-05-04 18:27 | 50.13067 | 8.07562 | 3278 ft | 108 kts | 23° |
| 2026-05-04 18:27 | 50.13750 | 8.08054 | 3273 ft | 108 kts | 24° |
| 2026-05-04 18:28 | 50.14426 | 8.08541 | 3274 ft | 107 kts | 24° |
| 2026-05-04 18:28 | 50.15098 | 8.09027 | 3275 ft | 106 kts | 24° |
| 2026-05-04 18:28 | 50.15761 | 8.09506 | 3278 ft | 105 kts | 24° |
| 2026-05-04 18:28 | 50.16424 | 8.09988 | 3281 ft | 106 kts | 24° |
| 2026-05-04 18:29 | 50.17092 | 8.10471 | 3278 ft | 105 kts | 24° |
| 2026-05-04 18:29 | 50.17740 | 8.10941 | 3277 ft | 103 kts | 24° |
| 2026-05-04 18:29 | 50.18392 | 8.11413 | 3275 ft | 102 kts | 24° |
| 2026-05-04 18:29 | 50.19033 | 8.11878 | 3283 ft | 102 kts | 24° |
| 2026-05-04 18:30 | 50.20341 | 8.12829 | 3284 ft | 104 kts | 24° |
| 2026-05-04 18:30 | 50.20995 | 8.13303 | 3285 ft | 105 kts | 24° |
| 2026-05-04 18:30 | 50.21657 | 8.13786 | 3293 ft | 107 kts | 24° |
| 2026-05-04 18:31 | 50.22335 | 8.14279 | 3294 ft | 106 kts | 24° |
| 2026-05-04 18:31 | 50.23005 | 8.14766 | 3300 ft | 106 kts | 24° |
| 2026-05-04 18:31 | 50.23685 | 8.15261 | 3293 ft | 109 kts | 24° |
| 2026-05-04 18:31 | 50.24368 | 8.15756 | 3294 ft | 110 kts | 23° |
| 2026-05-04 18:32 | 50.25069 | 8.16268 | 3295 ft | 109 kts | 24° |
| 2026-05-04 18:32 | 50.25657 | 8.16977 | 3299 ft | 110 kts | 51° |
| 2026-05-04 18:32 | 50.26046 | 8.18018 | 3296 ft | 110 kts | 68° |
| 2026-05-04 18:32 | 50.26341 | 8.19120 | 3298 ft | 111 kts | 66° |
| 2026-05-04 18:33 | 50.26661 | 8.20199 | 3295 ft | 111 kts | 58° |
| 2026-05-04 18:33 | 50.27093 | 8.21220 | 3299 ft | 112 kts | 55° |
| 2026-05-04 18:33 | 50.27520 | 8.22225 | 3300 ft | 113 kts | 56° |
| 2026-05-04 18:33 | 50.27955 | 8.23260 | 3295 ft | 114 kts | 56° |
| 2026-05-04 18:34 | 50.28392 | 8.24310 | 3300 ft | 116 kts | 57° |
| 2026-05-04 18:34 | 50.28829 | 8.25360 | 3298 ft | 114 kts | 56° |
| 2026-05-04 18:34 | 50.29270 | 8.26420 | 3298 ft | 115 kts | 57° |
| 2026-05-04 18:34 | 50.29696 | 8.27446 | 3290 ft | 113 kts | 56° |
| 2026-05-04 18:35 | 50.30118 | 8.28460 | 3286 ft | 110 kts | 56° |
| 2026-05-04 18:35 | 50.30530 | 8.29450 | 3286 ft | 110 kts | 56° |
| 2026-05-04 18:35 | 50.30946 | 8.30451 | 3283 ft | 108 kts | 56° |
| 2026-05-04 18:35 | 50.31348 | 8.31420 | 3280 ft | 106 kts | 56° |
| 2026-05-04 18:36 | 50.31753 | 8.32393 | 3283 ft | 106 kts | 56° |
| 2026-05-04 18:36 | 50.32153 | 8.33357 | 3284 ft | 105 kts | 56° |
| 2026-05-04 18:36 | 50.32548 | 8.34311 | 3283 ft | 105 kts | 57° |
| 2026-05-04 18:36 | 50.32943 | 8.35263 | 3288 ft | 104 kts | 56° |
| 2026-05-04 18:37 | 50.33340 | 8.36220 | 3288 ft | 105 kts | 57° |
| 2026-05-04 18:37 | 50.33735 | 8.37171 | 3291 ft | 104 kts | 56° |
| 2026-05-04 18:37 | 50.34129 | 8.38122 | 3289 ft | 104 kts | 57° |
| 2026-05-04 18:37 | 50.34531 | 8.39094 | 3293 ft | 107 kts | 57° |
| 2026-05-04 18:38 | 50.34797 | 8.39736 | 3296 ft | 108 kts | 56° |
| 2026-05-04 18:38 | 50.35207 | 8.40726 | 3297 ft | 108 kts | 57° |
| 2026-05-04 18:38 | 50.35613 | 8.41708 | 3298 ft | 108 kts | 57° |
| 2026-05-04 18:38 | 50.36025 | 8.42703 | 3305 ft | 109 kts | 57° |
| 2026-05-04 18:39 | 50.36112 | 8.43820 | 3310 ft | 108 kts | 111° |
| 2026-05-04 18:39 | 50.35897 | 8.44947 | 3301 ft | 108 kts | 107° |
| 2026-05-04 18:39 | 50.36018 | 8.46051 | 3287 ft | 109 kts | 45° |
| 2026-05-04 18:39 | 50.36696 | 8.46463 | 3293 ft | 106 kts | 20° |
| 2026-05-04 18:40 | 50.37269 | 8.47155 | 3304 ft | 105 kts | 56° |
| 2026-05-04 18:40 | 50.37695 | 8.48095 | 3303 ft | 107 kts | 54° |
| 2026-05-04 18:40 | 50.38107 | 8.49053 | 3304 ft | 106 kts | 56° |
| 2026-05-04 18:40 | 50.38509 | 8.50019 | 3305 ft | 105 kts | 57° |
| 2026-05-04 18:41 | 50.38902 | 8.50984 | 3304 ft | 105 kts | 57° |
| 2026-05-04 18:41 | 50.39292 | 8.51954 | 3303 ft | 106 kts | 57° |
| 2026-05-04 18:41 | 50.39682 | 8.52928 | 3300 ft | 105 kts | 57° |
| 2026-05-04 18:41 | 50.40070 | 8.53902 | 3303 ft | 105 kts | 57° |
| 2026-05-04 18:42 | 50.40461 | 8.54885 | 3304 ft | 108 kts | 58° |
| 2026-05-04 18:42 | 50.40855 | 8.55876 | 3305 ft | 106 kts | 57° |
| 2026-05-04 18:42 | 50.41243 | 8.56852 | 3300 ft | 105 kts | 57° |
| 2026-05-04 18:42 | 50.41630 | 8.57823 | 3301 ft | 105 kts | 57° |
| 2026-05-04 18:43 | 50.42014 | 8.58787 | 3297 ft | 104 kts | 57° |
| 2026-05-04 18:43 | 50.42394 | 8.59744 | 3295 ft | 103 kts | 57° |
| 2026-05-04 18:43 | 50.42772 | 8.60695 | 3294 ft | 103 kts | 57° |
| 2026-05-04 18:43 | 50.43153 | 8.61654 | 3290 ft | 103 kts | 57° |
| 2026-05-04 18:44 | 50.43533 | 8.62610 | 3291 ft | 103 kts | 57° |
| 2026-05-04 18:44 | 50.43785 | 8.63244 | 3289 ft | 103 kts | 57° |
| 2026-05-04 18:44 | 50.44295 | 8.64527 | 3291 ft | 104 kts | 57° |
| 2026-05-04 18:44 | 50.44675 | 8.65486 | 3290 ft | 103 kts | 57° |
| 2026-05-04 18:45 | 50.45053 | 8.66438 | 3288 ft | 102 kts | 57° |
| 2026-05-04 18:45 | 50.45423 | 8.67369 | 3289 ft | 102 kts | 57° |
| 2026-05-04 18:45 | 50.45802 | 8.68325 | 3288 ft | 102 kts | 56° |
| 2026-05-04 18:45 | 50.46170 | 8.69252 | 3281 ft | 101 kts | 57° |
| 2026-05-04 18:46 | 50.46551 | 8.70212 | 3283 ft | 102 kts | 57° |
| 2026-05-04 18:46 | 50.46921 | 8.71145 | 3284 ft | 102 kts | 57° |
| 2026-05-04 18:46 | 50.47297 | 8.72093 | 3283 ft | 103 kts | 57° |
| 2026-05-04 18:46 | 50.47674 | 8.73046 | 3283 ft | 103 kts | 57° |
| 2026-05-04 18:47 | 50.48054 | 8.74002 | 3286 ft | 103 kts | 57° |
| 2026-05-04 18:47 | 50.48430 | 8.74955 | 3284 ft | 103 kts | 59° |
| 2026-05-04 18:47 | 50.48606 | 8.76027 | 3285 ft | 103 kts | 78° |
| 2026-05-04 18:47 | 50.48753 | 8.77153 | 3290 ft | 105 kts | 77° |
| 2026-05-04 18:48 | 50.48900 | 8.78270 | 3291 ft | 104 kts | 77° |
| 2026-05-04 18:48 | 50.49046 | 8.79386 | 3286 ft | 104 kts | 77° |
| 2026-05-04 18:48 | 50.49188 | 8.80493 | 3288 ft | 104 kts | 77° |
| 2026-05-04 18:48 | 50.49331 | 8.81609 | 3287 ft | 104 kts | 77° |
| 2026-05-04 18:49 | 50.49472 | 8.82724 | 3289 ft | 104 kts | 77° |
| 2026-05-04 18:49 | 50.49615 | 8.83838 | 3289 ft | 105 kts | 77° |
| 2026-05-04 18:49 | 50.49759 | 8.84960 | 3292 ft | 105 kts | 77° |
| 2026-05-04 18:49 | 50.49902 | 8.86082 | 3291 ft | 105 kts | 77° |
| 2026-05-04 18:50 | 50.50046 | 8.87203 | 3294 ft | 105 kts | 77° |
| 2026-05-04 18:50 | 50.50189 | 8.88317 | 3290 ft | 104 kts | 77° |
| 2026-05-04 18:50 | 50.50334 | 8.89428 | 3285 ft | 104 kts | 77° |
| 2026-05-04 18:50 | 50.50476 | 8.90530 | 3285 ft | 103 kts | 77° |
| 2026-05-04 18:51 | 50.50619 | 8.91638 | 3287 ft | 103 kts | 78° |
| 2026-05-04 18:51 | 50.50759 | 8.92739 | 3288 ft | 103 kts | 78° |
| 2026-05-04 18:51 | 50.50902 | 8.93870 | 3294 ft | 109 kts | 78° |
| 2026-05-04 18:51 | 50.51056 | 8.95065 | 3289 ft | 114 kts | 77° |
| 2026-05-04 18:52 | 50.51213 | 8.96308 | 3291 ft | 118 kts | 78° |
| 2026-05-04 18:52 | 50.51376 | 8.97590 | 3289 ft | 120 kts | 78° |
| 2026-05-04 18:52 | 50.51536 | 8.98882 | 3286 ft | 120 kts | 77° |
| 2026-05-04 18:52 | 50.51694 | 9.00151 | 3280 ft | 116 kts | 77° |
| 2026-05-04 18:53 | 50.51844 | 9.01373 | 3280 ft | 113 kts | 78° |
| 2026-05-04 18:53 | 50.51993 | 9.02587 | 3276 ft | 111 kts | 77° |
| 2026-05-04 18:53 | 50.52136 | 9.03750 | 3277 ft | 105 kts | 77° |
| 2026-05-04 18:53 | 50.52273 | 9.04870 | 3278 ft | 103 kts | 77° |
| 2026-05-04 18:54 | 50.52409 | 9.05978 | 3280 ft | 103 kts | 78° |
| 2026-05-04 18:54 | 50.52545 | 9.07083 | 3278 ft | 104 kts | 77° |
| 2026-05-04 18:54 | 50.52681 | 9.08199 | 3276 ft | 103 kts | 77° |
| 2026-05-04 18:54 | 50.52814 | 9.09301 | 3273 ft | 103 kts | 77° |
| 2026-05-04 18:55 | 50.52947 | 9.10415 | 3279 ft | 104 kts | 77° |
| 2026-05-04 18:55 | 50.53209 | 9.12661 | 3279 ft | 105 kts | 77° |
| 2026-05-04 18:55 | 50.53339 | 9.13782 | 3282 ft | 104 kts | 78° |
| 2026-05-04 18:56 | 50.53469 | 9.14907 | 3284 ft | 105 kts | 77° |
| 2026-05-04 18:56 | 50.53604 | 9.16050 | 3285 ft | 107 kts | 77° |
| 2026-05-04 18:56 | 50.53739 | 9.17183 | 3283 ft | 104 kts | 77° |
| 2026-05-04 18:56 | 50.53871 | 9.18305 | 3282 ft | 104 kts | 78° |
| 2026-05-04 18:57 | 50.54004 | 9.19414 | 3278 ft | 103 kts | 77° |
| 2026-05-04 18:57 | 50.54132 | 9.20512 | 3278 ft | 102 kts | 77° |
| 2026-05-04 18:57 | 50.54257 | 9.21607 | 3278 ft | 102 kts | 77° |
| 2026-05-04 18:57 | 50.54382 | 9.22706 | 3279 ft | 102 kts | 78° |
| 2026-05-04 18:58 | 50.54503 | 9.23810 | 3278 ft | 103 kts | 78° |
| 2026-05-04 18:58 | 50.54627 | 9.24923 | 3286 ft | 104 kts | 78° |
| 2026-05-04 18:58 | 50.54752 | 9.26045 | 3286 ft | 105 kts | 78° |
| 2026-05-04 18:58 | 50.54876 | 9.27170 | 3283 ft | 105 kts | 78° |
| 2026-05-04 18:59 | 50.55003 | 9.28294 | 3287 ft | 104 kts | 78° |
| 2026-05-04 18:59 | 50.55133 | 9.29410 | 3285 ft | 103 kts | 77° |
| 2026-05-04 18:59 | 50.55260 | 9.30514 | 3286 ft | 103 kts | 77° |
| 2026-05-04 18:59 | 50.55388 | 9.31623 | 3281 ft | 102 kts | 77° |
| 2026-05-04 19:00 | 50.55511 | 9.32722 | 3277 ft | 102 kts | 78° |
| 2026-05-04 19:00 | 50.55637 | 9.33823 | 3284 ft | 103 kts | 77° |
| 2026-05-04 19:00 | 50.55774 | 9.34907 | 3283 ft | 103 kts | 74° |
| 2026-05-04 19:00 | 50.55934 | 9.36007 | 3284 ft | 104 kts | 75° |
| 2026-05-04 19:01 | 50.56098 | 9.37138 | 3286 ft | 105 kts | 75° |
| 2026-05-04 19:01 | 50.56257 | 9.38242 | 3288 ft | 105 kts | 75° |
| 2026-05-04 19:01 | 50.56422 | 9.39382 | 3288 ft | 105 kts | 75° |
| 2026-05-04 19:01 | 50.56582 | 9.40507 | 3288 ft | 106 kts | 75° |
| 2026-05-04 19:02 | 50.56740 | 9.41617 | 3288 ft | 106 kts | 75° |
| 2026-05-04 19:02 | 50.56896 | 9.42734 | 3297 ft | 105 kts | 75° |
| 2026-05-04 19:02 | 50.57056 | 9.43856 | 3296 ft | 105 kts | 75° |
| 2026-05-04 19:02 | 50.57215 | 9.44966 | 3291 ft | 103 kts | 75° |
| 2026-05-04 19:03 | 50.57372 | 9.46061 | 3291 ft | 102 kts | 75° |
| 2026-05-04 19:03 | 50.57529 | 9.47152 | 3291 ft | 102 kts | 75° |
| 2026-05-04 19:03 | 50.57687 | 9.48233 | 3291 ft | 101 kts | 74° |
| 2026-05-04 19:03 | 50.57844 | 9.49319 | 3297 ft | 103 kts | 74° |
| 2026-05-04 19:04 | 50.58003 | 9.50424 | 3302 ft | 104 kts | 74° |
| 2026-05-04 19:04 | 50.58162 | 9.51544 | 3302 ft | 105 kts | 75° |
| 2026-05-04 19:04 | 50.58323 | 9.52667 | 3310 ft | 106 kts | 75° |
| 2026-05-04 19:04 | 50.58482 | 9.53804 | 3310 ft | 106 kts | 75° |
| 2026-05-04 19:05 | 50.58643 | 9.54936 | 3308 ft | 106 kts | 75° |
| 2026-05-04 19:05 | 50.58806 | 9.56068 | 3304 ft | 106 kts | 75° |
| 2026-05-04 19:05 | 50.58969 | 9.57209 | 3305 ft | 106 kts | 75° |
| 2026-05-04 19:05 | 50.59133 | 9.58333 | 3308 ft | 106 kts | 75° |
| 2026-05-04 19:06 | 50.59296 | 9.59463 | 3309 ft | 106 kts | 75° |
| 2026-05-04 19:06 | 50.59459 | 9.60583 | 3311 ft | 106 kts | 75° |
| 2026-05-04 19:06 | 50.59712 | 9.61652 | 3307 ft | 104 kts | 64° |
| 2026-05-04 19:06 | 50.59995 | 9.62705 | 3305 ft | 103 kts | 65° |
| 2026-05-04 19:07 | 50.60268 | 9.63741 | 3317 ft | 107 kts | 65° |
| 2026-05-04 19:07 | 50.60561 | 9.64874 | 3318 ft | 113 kts | 65° |
| 2026-05-04 19:07 | 50.60865 | 9.66023 | 3306 ft | 112 kts | 65° |
| 2026-05-04 19:07 | 50.61191 | 9.67117 | 3303 ft | 110 kts | 58° |
| 2026-05-04 19:08 | 50.61572 | 9.68166 | 3300 ft | 109 kts | 58° |
| 2026-05-04 19:08 | 50.61965 | 9.69158 | 3296 ft | 108 kts | 55° |
| 2026-05-04 19:08 | 50.62367 | 9.70135 | 3293 ft | 105 kts | 55° |
| 2026-05-04 19:08 | 50.62758 | 9.71079 | 3300 ft | 102 kts | 54° |
| 2026-05-04 19:09 | 50.63152 | 9.72035 | 3297 ft | 104 kts | 54° |
| 2026-05-04 19:09 | 50.63540 | 9.72973 | 3296 ft | 101 kts | 54° |
| 2026-05-04 19:09 | 50.63926 | 9.73904 | 3304 ft | 102 kts | 54° |
| 2026-05-04 19:09 | 50.64320 | 9.74863 | 3299 ft | 105 kts | 54° |
| 2026-05-04 19:10 | 50.64724 | 9.75853 | 3316 ft | 110 kts | 54° |
| 2026-05-04 19:10 | 50.65146 | 9.76875 | 3311 ft | 111 kts | 55° |
| 2026-05-04 19:10 | 50.65567 | 9.77912 | 3306 ft | 112 kts | 55° |
| 2026-05-04 19:10 | 50.65982 | 9.78933 | 3311 ft | 111 kts | 55° |
| 2026-05-04 19:11 | 50.66374 | 9.79913 | 3295 ft | 98 kts | 56° |
| 2026-05-04 19:11 | 50.66711 | 9.80759 | 3288 ft | 87 kts | 54° |
| 2026-05-04 19:11 | 50.67022 | 9.81545 | 3300 ft | 84 kts | 54° |
| 2026-05-04 19:11 | 50.67331 | 9.82314 | 3295 ft | 79 kts | 54° |
| 2026-05-04 19:12 | 50.67617 | 9.83040 | 3297 ft | 79 kts | 54° |
| 2026-05-04 19:12 | 50.68227 | 9.84565 | 3309 ft | 85 kts | 54° |
| 2026-05-04 19:12 | 50.68560 | 9.85391 | 3317 ft | 92 kts | 55° |
| 2026-05-04 19:13 | 50.68918 | 9.86276 | 3317 ft | 96 kts | 54° |
| 2026-05-04 19:13 | 50.69271 | 9.87165 | 3314 ft | 95 kts | 54° |
| 2026-05-04 19:13 | 50.69624 | 9.88039 | 3314 ft | 93 kts | 54° |
| 2026-05-04 19:13 | 50.69967 | 9.88879 | 3311 ft | 92 kts | 54° |
| 2026-05-04 19:14 | 50.70319 | 9.89743 | 3316 ft | 94 kts | 54° |
| 2026-05-04 19:14 | 50.70670 | 9.90618 | 3319 ft | 96 kts | 55° |
| 2026-05-04 19:14 | 50.71033 | 9.91520 | 3314 ft | 98 kts | 55° |
| 2026-05-04 19:14 | 50.71401 | 9.92402 | 3311 ft | 95 kts | 55° |
| 2026-05-04 19:15 | 50.71760 | 9.93269 | 3312 ft | 94 kts | 54° |
| 2026-05-04 19:15 | 50.72120 | 9.94151 | 3314 ft | 96 kts | 55° |
| 2026-05-04 19:15 | 50.72485 | 9.95044 | 3317 ft | 97 kts | 55° |
| 2026-05-04 19:15 | 50.72853 | 9.95948 | 3312 ft | 98 kts | 54° |
| 2026-05-04 19:16 | 50.73223 | 9.96851 | 3322 ft | 98 kts | 54° |
| 2026-05-04 19:16 | 50.73594 | 9.97762 | 3313 ft | 101 kts | 55° |
| 2026-05-04 19:16 | 50.73967 | 9.98700 | 3313 ft | 100 kts | 59° |
| 2026-05-04 19:16 | 50.74137 | 9.99760 | 3312 ft | 100 kts | 77° |
| 2026-05-04 19:17 | 50.74268 | 10.00834 | 3313 ft | 100 kts | 77° |
| 2026-05-04 19:17 | 50.74398 | 10.01908 | 3308 ft | 99 kts | 77° |
| 2026-05-04 19:17 | 50.74528 | 10.02961 | 3299 ft | 96 kts | 77° |
| 2026-05-04 19:17 | 50.74652 | 10.03987 | 3296 ft | 94 kts | 77° |
| 2026-05-04 19:18 | 50.74775 | 10.04993 | 3297 ft | 93 kts | 76° |
| 2026-05-04 19:18 | 50.74895 | 10.06003 | 3304 ft | 95 kts | 77° |
| 2026-05-04 19:18 | 50.75018 | 10.07012 | 3307 ft | 94 kts | 77° |
| 2026-05-04 19:18 | 50.75142 | 10.08039 | 3309 ft | 95 kts | 76° |
| 2026-05-04 19:19 | 50.75260 | 10.09064 | 3310 ft | 97 kts | 76° |
| 2026-05-04 19:19 | 50.75383 | 10.10109 | 3314 ft | 97 kts | 77° |
| 2026-05-04 19:19 | 50.75508 | 10.11165 | 3312 ft | 98 kts | 77° |
| 2026-05-04 19:19 | 50.75634 | 10.12225 | 3315 ft | 98 kts | 77° |
| 2026-05-04 19:20 | 50.75758 | 10.13280 | 3320 ft | 99 kts | 76° |
| 2026-05-04 19:20 | 50.75883 | 10.14351 | 3321 ft | 99 kts | 77° |
| 2026-05-04 19:20 | 50.76014 | 10.15450 | 3318 ft | 103 kts | 77° |
| 2026-05-04 19:20 | 50.76189 | 10.16549 | 3317 ft | 105 kts | 66° |
| 2026-05-04 19:21 | 50.76527 | 10.17529 | 3311 ft | 99 kts | 50° |
| 2026-05-04 19:21 | 50.76978 | 10.18317 | 3306 ft | 95 kts | 39° |
| 2026-05-04 19:21 | 50.77456 | 10.19026 | 3304 ft | 92 kts | 41° |
| 2026-05-04 19:21 | 50.77916 | 10.19712 | 3307 ft | 90 kts | 41° |
| 2026-05-04 19:22 | 50.78390 | 10.20357 | 3304 ft | 89 kts | 32° |
| 2026-05-04 19:22 | 50.78911 | 10.20931 | 3317 ft | 94 kts | 32° |
| 2026-05-04 19:22 | 50.79463 | 10.21541 | 3324 ft | 100 kts | 32° |
| 2026-05-04 19:22 | 50.80015 | 10.22170 | 3324 ft | 98 kts | 37° |
| 2026-05-04 19:23 | 50.80530 | 10.22930 | 3324 ft | 102 kts | 45° |
| 2026-05-04 19:23 | 50.81008 | 10.23749 | 3324 ft | 100 kts | 45° |
| 2026-05-04 19:23 | 50.81473 | 10.24541 | 3320 ft | 100 kts | 45° |
| 2026-05-04 19:23 | 50.81948 | 10.25354 | 3321 ft | 99 kts | 45° |
| 2026-05-04 19:24 | 50.82400 | 10.26131 | 3309 ft | 94 kts | 45° |
| 2026-05-04 19:24 | 50.82835 | 10.26877 | 3310 ft | 92 kts | 45° |
| 2026-05-04 19:24 | 50.83236 | 10.27670 | 3306 ft | 94 kts | 56° |
| 2026-05-04 19:24 | 50.83579 | 10.28553 | 3306 ft | 94 kts | 56° |
| 2026-05-04 19:25 | 50.83802 | 10.29139 | 3311 ft | 95 kts | 58° |
| 2026-05-04 19:25 | 50.84213 | 10.30384 | 3309 ft | 95 kts | 60° |
| 2026-05-04 19:25 | 50.84513 | 10.31298 | 3311 ft | 95 kts | 60° |
| 2026-05-04 19:25 | 50.84815 | 10.32225 | 3311 ft | 95 kts | 60° |
| 2026-05-04 19:26 | 50.85116 | 10.33147 | 3305 ft | 94 kts | 60° |
| 2026-05-04 19:26 | 50.85413 | 10.34050 | 3310 ft | 93 kts | 60° |
| 2026-05-04 19:26 | 50.85713 | 10.34966 | 3308 ft | 95 kts | 59° |
| 2026-05-04 19:26 | 50.85920 | 10.35589 | 3312 ft | 93 kts | 59° |
| 2026-05-04 19:27 | 50.86207 | 10.36469 | 3306 ft | 88 kts | 60° |
| 2026-05-04 19:27 | 50.86495 | 10.37344 | 3309 ft | 89 kts | 60° |
| 2026-05-04 19:27 | 50.86778 | 10.38212 | 3308 ft | 90 kts | 59° |
| 2026-05-04 19:27 | 50.87070 | 10.39099 | 3315 ft | 92 kts | 60° |
| 2026-05-04 19:28 | 50.87372 | 10.40016 | 3324 ft | 94 kts | 59° |
| 2026-05-04 19:28 | 50.87670 | 10.40943 | 3328 ft | 95 kts | 59° |
| 2026-05-04 19:28 | 50.87971 | 10.41878 | 3321 ft | 95 kts | 60° |
| 2026-05-04 19:28 | 50.88275 | 10.42809 | 3330 ft | 98 kts | 59° |
| 2026-05-04 19:29 | 50.88622 | 10.43845 | 3330 ft | 115 kts | 60° |
| 2026-05-04 19:29 | 50.88995 | 10.45025 | 3333 ft | 125 kts | 63° |
| 2026-05-04 19:29 | 50.89338 | 10.46322 | 3327 ft | 128 kts | 67° |
| 2026-05-04 19:29 | 50.89665 | 10.47644 | 3325 ft | 130 kts | 65° |
| 2026-05-04 19:30 | 50.90044 | 10.48939 | 3326 ft | 130 kts | 60° |
| 2026-05-04 19:30 | 50.90470 | 10.50201 | 3319 ft | 130 kts | 60° |
| 2026-05-04 19:30 | 50.90893 | 10.51464 | 3322 ft | 130 kts | 60° |
| 2026-05-04 19:30 | 50.91320 | 10.52732 | 3321 ft | 130 kts | 60° |
| 2026-05-04 19:31 | 50.91740 | 10.53988 | 3320 ft | 127 kts | 62° |
| 2026-05-04 19:31 | 50.91848 | 10.55365 | 3318 ft | 128 kts | 92° |
| 2026-05-04 19:31 | 50.91750 | 10.56760 | 3315 ft | 127 kts | 96° |
| 2026-05-04 19:31 | 50.91639 | 10.58143 | 3318 ft | 127 kts | 96° |
| 2026-05-04 19:32 | 50.91527 | 10.59530 | 3314 ft | 126 kts | 96° |
| 2026-05-04 19:32 | 50.91417 | 10.60863 | 3304 ft | 118 kts | 96° |
| 2026-05-04 19:32 | 50.91311 | 10.62114 | 3298 ft | 110 kts | 96° |
| 2026-05-04 19:32 | 50.91211 | 10.63295 | 3302 ft | 106 kts | 96° |
| 2026-05-04 19:33 | 50.91115 | 10.64432 | 3298 ft | 103 kts | 96° |
| 2026-05-04 19:33 | 50.91017 | 10.65543 | 3304 ft | 101 kts | 96° |
| 2026-05-04 19:33 | 50.90918 | 10.66649 | 3299 ft | 101 kts | 96° |
| 2026-05-04 19:33 | 50.90819 | 10.67736 | 3301 ft | 100 kts | 96° |
| 2026-05-04 19:34 | 50.90719 | 10.68831 | 3304 ft | 100 kts | 96° |
| 2026-05-04 19:34 | 50.90620 | 10.69925 | 3301 ft | 99 kts | 96° |
| 2026-05-04 19:34 | 50.90519 | 10.71013 | 3303 ft | 101 kts | 96° |
| 2026-05-04 19:34 | 50.90417 | 10.72110 | 3299 ft | 100 kts | 96° |
| 2026-05-04 19:35 | 50.90319 | 10.73195 | 3302 ft | 99 kts | 96° |
| 2026-05-04 19:35 | 50.90225 | 10.74262 | 3300 ft | 97 kts | 96° |
| 2026-05-04 19:35 | 50.90133 | 10.75317 | 3298 ft | 96 kts | 96° |
| 2026-05-04 19:35 | 50.90044 | 10.76347 | 3298 ft | 95 kts | 96° |
| 2026-05-04 19:36 | 50.89953 | 10.77391 | 3299 ft | 96 kts | 96° |
| 2026-05-04 19:36 | 50.89861 | 10.78437 | 3301 ft | 96 kts | 96° |
| 2026-05-04 19:36 | 50.89769 | 10.79544 | 3308 ft | 107 kts | 96° |
| 2026-05-04 19:36 | 50.89680 | 10.80768 | 3319 ft | 119 kts | 93° |
| 2026-05-04 19:37 | 50.89615 | 10.82116 | 3321 ft | 125 kts | 93° |
| 2026-05-04 19:37 | 50.89544 | 10.83459 | 3313 ft | 115 kts | 93° |
| 2026-05-04 19:37 | 50.89478 | 10.84637 | 3213 ft | 107 kts | 94° |
| 2026-05-04 19:37 | 50.89402 | 10.85903 | 2841 ft | 120 kts | 94° |
| 2026-05-04 19:38 | 50.89323 | 10.87205 | 2595 ft | 118 kts | 94° |
| 2026-05-04 19:38 | 50.89250 | 10.88501 | 2265 ft | 119 kts | 91° |
| 2026-05-04 19:38 | 50.89201 | 10.89761 | 2198 ft | 109 kts | 90° |
| 2026-05-04 19:38 | 50.89206 | 10.90903 | 2135 ft | 101 kts | 92° |
| 2026-05-04 19:39 | 50.89159 | 10.92011 | 1995 ft | 95 kts | 91° |
| 2026-05-04 19:39 | 50.89130 | 10.93026 | 1995 ft | 90 kts | 91° |
| 2026-05-04 19:39 | 50.89100 | 10.94015 | 1990 ft | 90 kts | 91° |
| 2026-05-04 19:39 | 50.89075 | 10.94993 | 1995 ft | 88 kts | 89° |
| 2026-05-04 19:40 | 50.89249 | 10.95859 | 1900 ft | 91 kts | 26° |
| 2026-05-04 19:40 | 50.89866 | 10.95938 | 1889 ft | 86 kts | 2° |
| 2026-05-04 19:40 | 50.90393 | 10.96097 | 1987 ft | 71 kts | 1° |
| 2026-05-04 19:40 | 50.90891 | 10.96164 | 1993 ft | 73 kts | 4° |
| 2026-05-04 19:41 | 50.91401 | 10.96238 | 1994 ft | 74 kts | 4° |
| 2026-05-04 19:41 | 50.91911 | 10.96313 | 1995 ft | 74 kts | 4° |
| 2026-05-04 19:41 | 50.92483 | 10.96406 | 1900 ft | 92 kts | 12° |
| 2026-05-04 19:41 | 50.93087 | 10.96817 | 1914 ft | 96 kts | 23° |
| 2026-05-04 19:42 | 50.93677 | 10.97334 | 1947 ft | 96 kts | 28° |
| 2026-05-04 19:42 | 50.94228 | 10.97851 | 1798 ft | 92 kts | 30° |
| 2026-05-04 19:42 | 50.94810 | 10.98396 | 1514 ft | 100 kts | 27° |
| 2026-05-04 19:42 | 50.95427 | 10.98923 | 1300 ft | 102 kts | 25° |
| 2026-05-04 19:43 | 50.96140 | 10.99237 | 1300 ft | 108 kts | 11° |
| 2026-05-04 19:43 | 50.96887 | 10.99588 | 1297 ft | 112 kts | 21° |
| 2026-05-04 19:43 | 50.97623 | 10.99850 | 1275 ft | 103 kts | 350° |
| 2026-05-04 19:43 | 50.97975 | 10.99211 | 1186 ft | 78 kts | 253° |
| 2026-05-04 19:44 | 50.97763 | 10.98458 | 1114 ft | 70 kts | 259° |
| 2026-05-04 19:44 | 50.97832 | 10.97692 | 1036 ft | 66 kts | 270° |
| 2026-05-04 19:44 | 50.97862 | 10.97092 | 1021 ft | 29 kts | 258° |
| 2026-05-04 19:44 | 50.97844 | 10.97039 | 1021 ft | 3 kts | 198° |
| 2026-05-04 19:45 | 50.97774 | 10.97059 | 1020 ft | 0 kts | 187° |
| 2026-05-04 19:45 | 50.97768 | 10.97057 | 1020 ft | 5 kts | 191° |
| 2026-05-04 19:45 | 50.97733 | 10.97047 | 1020 ft | 8 kts | 188° |
| 2026-05-04 19:46 | 50.97679 | 10.96973 | 1020 ft | 11 kts | 256° |
| 2026-05-04 19:46 | 50.97683 | 10.96829 | 1021 ft | 15 kts | 276° |
| 2026-05-04 19:46 | 50.97694 | 10.96650 | 1022 ft | 19 kts | 254° |
| 2026-05-04 19:46 | 50.97587 | 10.96586 | 1022 ft | 17 kts | 216° |
| 2026-05-04 19:47 | 50.97530 | 10.96461 | 1022 ft | 11 kts | 238° |
| 2026-05-04 19:47 | 50.97529 | 10.96433 | 1022 ft | 1 kts | 3° |
| 2026-05-04 19:47 | 50.97557 | 10.96435 | 1022 ft | 0 kts | 292° |
| 2026-05-04 19:47 | 50.97557 | 10.96420 | 1022 ft | 0 kts | 276° |